createdAt,value
2022-08-31T00:03:57.975Z,25.43
2022-08-31T00:09:23.039Z,25.43
2022-08-31T00:14:50.131Z,25.35
2022-08-31T00:20:32.865Z,25.12
2022-08-31T00:25:59.920Z,25.04
2022-08-31T00:31:23.937Z,25.07
2022-08-31T00:36:48.520Z,25.08
2022-08-31T00:42:15.254Z,25.09
2022-08-31T00:47:41.883Z,24.20
2022-08-31T00:53:07.316Z,23.59
2022-08-31T00:58:33.018Z,23.28
2022-08-31T01:03:57.736Z,23.09
2022-08-31T01:09:24.039Z,23.23
2022-08-31T01:14:49.922Z,23.32
2022-08-31T01:20:17.912Z,23.39
2022-08-31T01:25:45.754Z,23.70
2022-08-31T01:31:11.478Z,23.91
2022-08-31T01:36:36.959Z,24.00
2022-08-31T01:42:04.037Z,24.09
2022-08-31T01:47:28.780Z,24.09
2022-08-31T01:52:53.113Z,24.07
2022-08-31T01:58:19.215Z,24.06
2022-08-31T02:04:02.811Z,24.00
2022-08-31T02:09:27.803Z,24.02
2022-08-31T02:14:53.751Z,24.00
2022-08-31T02:20:18.083Z,24.00
2022-08-31T02:25:43.029Z,23.99
2022-08-31T02:31:08.829Z,23.96
2022-08-31T02:36:43.003Z,23.95
2022-08-31T02:42:07.270Z,23.93
2022-08-31T02:47:34.155Z,23.92
2022-08-31T02:53:10.024Z,23.90
2022-08-31T02:58:35.300Z,23.84
2022-08-31T03:04:03.077Z,23.78
2022-08-31T03:09:27.311Z,23.42
2022-08-31T03:14:51.774Z,23.27
2022-08-31T03:20:20.187Z,23.18
2022-08-31T03:25:44.171Z,23.04
2022-08-31T03:31:10.912Z,23.25
2022-08-31T03:36:36.626Z,23.44
2022-08-31T03:42:00.633Z,23.59
2022-08-31T03:47:29.138Z,23.65
2022-08-31T03:52:56.124Z,23.73
2022-08-31T03:58:24.135Z,23.83
2022-08-31T04:03:47.395Z,23.88
2022-08-31T04:09:36.024Z,24.02
2022-08-31T04:15:34.699Z,24.17
2022-08-31T04:21:31.848Z,24.25
2022-08-31T04:27:03.039Z,24.31
2022-08-31T04:32:32.611Z,24.37
2022-08-31T04:37:57.118Z,24.44
2022-08-31T04:43:23.701Z,24.46
2022-08-31T04:48:51.704Z,24.56
2022-08-31T04:54:20.456Z,24.57
2022-08-31T04:59:50.705Z,24.55
2022-08-31T05:05:38.702Z,24.63
2022-08-31T05:11:09.317Z,24.74
2022-08-31T05:16:34.726Z,25.00
2022-08-31T05:22:02.997Z,25.24
2022-08-31T05:27:29.332Z,25.51
2022-08-31T05:32:54.351Z,25.69
2022-08-31T05:38:23.511Z,25.91
2022-08-31T05:43:52.417Z,26.03
2022-08-31T05:49:23.764Z,26.23
2022-08-31T05:54:50.845Z,26.66
2022-08-31T06:00:20.065Z,28.06
2022-08-31T06:05:57.620Z,30.40
2022-08-31T06:11:28.093Z,32.21
2022-08-31T06:16:57.257Z,33.49
2022-08-31T06:22:21.965Z,34.19
2022-08-31T06:27:51.670Z,33.90
2022-08-31T06:33:15.050Z,33.14
2022-08-31T06:39:00.534Z,33.14
2022-08-31T06:44:45.562Z,33.28
2022-08-31T06:50:18.210Z,33.88
2022-08-31T06:55:48.989Z,33.42
2022-08-31T07:01:35.962Z,33.72
2022-08-31T07:07:22.348Z,33.87
2022-08-31T07:12:54.663Z,34.60
2022-08-31T07:18:23.925Z,34.58
2022-08-31T07:23:50.476Z,34.08
2022-08-31T07:29:18.628Z,34.31
2022-08-31T07:34:44.151Z,34.66
2022-08-31T07:40:55.502Z,34.49
2022-08-31T07:46:24.071Z,34.27
2022-08-31T07:51:50.446Z,33.36
2022-08-31T07:57:30.245Z,33.89
2022-08-31T08:03:08.128Z,34.97
2022-08-31T08:09:24.079Z,34.98
2022-08-31T08:15:11.809Z,35.49
2022-08-31T08:20:55.753Z,35.71
2022-08-31T08:26:25.245Z,36.24
2022-08-31T08:32:15.486Z,36.11
2022-08-31T08:37:57.908Z,36.47
2022-08-31T08:43:32.126Z,36.58
2022-08-31T08:49:05.016Z,36.70
2022-08-31T08:54:38.009Z,35.98
2022-08-31T09:00:17.341Z,36.02
2022-08-31T09:05:56.513Z,36.12
2022-08-31T09:11:46.809Z,36.46
2022-08-31T09:17:18.791Z,36.64
2022-08-31T09:22:47.192Z,36.45
2022-08-31T09:28:34.000Z,36.19
2022-08-31T09:34:00.129Z,35.31
2022-08-31T09:39:33.007Z,35.73
2022-08-31T09:45:14.197Z,35.88
2022-08-31T09:50:46.291Z,35.64
2022-08-31T09:56:14.441Z,35.42
2022-08-31T10:01:45.979Z,35.83
2022-08-31T10:07:18.460Z,36.23
2022-08-31T10:12:44.561Z,36.04
2022-08-31T10:18:14.287Z,36.08
2022-08-31T10:23:38.978Z,35.57
2022-08-31T10:29:09.544Z,35.61
2022-08-31T10:34:59.120Z,35.97
2022-08-31T10:40:28.526Z,36.08
2022-08-31T10:45:53.327Z,35.42
2022-08-31T10:51:27.220Z,35.81
2022-08-31T10:57:00.809Z,35.35
2022-08-31T11:02:37.113Z,35.41
2022-08-31T11:08:07.426Z,35.53
2022-08-31T11:13:42.332Z,35.67
2022-08-31T11:19:32.535Z,35.69
2022-08-31T11:25:19.662Z,35.59
2022-08-31T11:30:51.292Z,35.59
2022-08-31T11:36:32.516Z,35.56
2022-08-31T11:42:01.758Z,34.91
2022-08-31T11:47:44.480Z,35.46
2022-08-31T11:53:20.935Z,35.80
2022-08-31T11:58:49.603Z,35.70
2022-08-31T12:04:32.178Z,35.88
2022-08-31T12:10:27.564Z,35.42
2022-08-31T12:16:00.781Z,34.82
2022-08-31T12:21:44.450Z,34.70
2022-08-31T12:27:25.061Z,34.28
2022-08-31T12:32:59.279Z,34.22
2022-08-31T12:38:28.239Z,34.32
2022-08-31T12:43:58.718Z,34.52
2022-08-31T12:49:48.778Z,35.03
2022-08-31T12:55:33.450Z,35.17
2022-08-31T13:01:09.308Z,35.07
2022-08-31T13:06:41.037Z,34.90
2022-08-31T13:12:04.492Z,34.64
2022-08-31T13:17:37.864Z,34.81
2022-08-31T13:23:02.765Z,34.75
2022-08-31T13:28:31.317Z,34.85
2022-08-31T13:34:02.937Z,34.75
2022-08-31T13:39:27.718Z,34.45
2022-08-31T13:44:56.314Z,34.21
2022-08-31T13:50:27.986Z,34.12
2022-08-31T13:55:57.684Z,34.45
2022-08-31T14:01:27.101Z,34.45
2022-08-31T14:06:52.452Z,34.29
2022-08-31T14:12:34.985Z,33.86
2022-08-31T14:18:24.448Z,33.84
2022-08-31T14:24:01.428Z,33.80
2022-08-31T14:29:30.010Z,33.53
2022-08-31T14:34:55.030Z,33.31
2022-08-31T14:40:24.802Z,33.18
2022-08-31T14:45:54.623Z,33.01
2022-08-31T14:51:24.056Z,33.05
2022-08-31T14:56:50.592Z,32.82
2022-08-31T15:02:21.657Z,32.50
2022-08-31T15:07:51.231Z,32.27
2022-08-31T15:13:16.989Z,32.13
2022-08-31T15:18:46.770Z,31.92
2022-08-31T15:24:12.084Z,31.86
2022-08-31T15:29:43.344Z,31.77
2022-08-31T15:35:18.069Z,31.65
2022-08-31T15:40:43.112Z,31.48
2022-08-31T15:46:14.879Z,31.30
2022-08-31T15:51:46.917Z,30.96
2022-08-31T15:57:12.223Z,30.78
2022-08-31T16:02:37.590Z,30.60
2022-08-31T16:08:07.022Z,30.25
2022-08-31T16:13:33.783Z,29.55
2022-08-31T16:18:58.361Z,29.25
2022-08-31T16:24:25.813Z,28.92
2022-08-31T16:29:54.384Z,28.99
2022-08-31T16:35:24.782Z,28.80
2022-08-31T16:40:53.553Z,28.56
2022-08-31T16:46:39.986Z,28.41
2022-08-31T16:52:11.125Z,28.20
2022-08-31T16:57:34.703Z,28.11
2022-08-31T17:03:01.812Z,27.99
2022-08-31T17:08:27.015Z,27.97
2022-08-31T17:13:59.186Z,27.80
2022-08-31T17:19:24.128Z,27.68
2022-08-31T17:24:52.199Z,27.59
2022-08-31T17:30:17.506Z,27.39
2022-08-31T17:35:46.398Z,27.34
2022-08-31T17:41:16.593Z,27.27
2022-08-31T17:46:42.596Z,27.21
2022-08-31T17:52:12.293Z,27.12
2022-08-31T17:57:42.661Z,27.00
2022-08-31T18:03:06.429Z,26.86
2022-08-31T18:08:36.134Z,26.78
2022-08-31T18:14:00.721Z,26.69
2022-08-31T18:19:29.814Z,26.62
2022-08-31T18:24:58.247Z,26.56
2022-08-31T18:30:28.797Z,26.44
2022-08-31T18:35:58.072Z,26.29
2022-08-31T18:41:45.500Z,26.14
2022-08-31T18:47:16.785Z,26.05
2022-08-31T18:52:46.701Z,25.98
2022-08-31T18:58:15.265Z,25.86
2022-08-31T19:03:41.322Z,25.79
2022-08-31T19:09:08.076Z,25.66
2022-08-31T19:14:38.353Z,25.59
2022-08-31T19:20:04.906Z,25.46
2022-08-31T19:25:29.028Z,25.32
2022-08-31T19:30:52.576Z,25.30
2022-08-31T19:36:22.563Z,25.14
2022-08-31T19:41:52.748Z,25.09
2022-08-31T19:47:31.212Z,25.00
2022-08-31T19:52:56.042Z,24.81
2022-08-31T19:58:20.006Z,24.72
2022-08-31T20:03:43.048Z,24.71
2022-08-31T20:09:13.850Z,24.67
2022-08-31T20:14:42.082Z,24.59
2022-08-31T20:20:12.223Z,24.61
2022-08-31T20:25:42.813Z,24.64
2022-08-31T20:31:07.788Z,24.67
2022-08-31T20:36:38.168Z,24.70
2022-08-31T20:42:06.430Z,24.66
2022-08-31T20:47:47.255Z,24.62
2022-08-31T20:53:14.571Z,24.62
2022-08-31T20:58:43.377Z,24.63
2022-08-31T21:04:12.386Z,24.60
2022-08-31T21:09:41.394Z,24.54
2022-08-31T21:15:10.329Z,24.50
2022-08-31T21:20:35.307Z,24.51
2022-08-31T21:26:04.460Z,24.42
2022-08-31T21:31:31.194Z,24.35
2022-08-31T21:37:00.003Z,24.30
2022-08-31T21:42:26.602Z,24.25
2022-08-31T21:47:56.384Z,24.20
2022-08-31T21:53:27.271Z,24.17
2022-08-31T21:58:53.715Z,24.10
2022-08-31T22:04:21.400Z,24.07
2022-08-31T22:09:46.788Z,24.01
2022-08-31T22:15:17.224Z,23.94
2022-08-31T22:20:43.326Z,23.88
2022-08-31T22:26:12.626Z,23.81
2022-08-31T22:31:41.437Z,23.75
2022-08-31T22:37:06.487Z,23.72
2022-08-31T22:42:31.043Z,23.64
2022-08-31T22:47:59.909Z,23.62
2022-08-31T22:53:29.496Z,23.58
2022-08-31T22:58:57.000Z,23.54
2022-08-31T23:04:28.968Z,23.49
2022-08-31T23:09:54.610Z,23.45
2022-08-31T23:15:17.436Z,23.35
2022-08-31T23:20:42.029Z,23.24
2022-08-31T23:26:09.565Z,23.11
2022-08-31T23:31:36.989Z,23.08
2022-08-31T23:37:08.710Z,23.02
2022-08-31T23:42:41.300Z,22.99
2022-08-31T23:48:06.348Z,22.94
2022-08-31T23:53:35.134Z,22.86
2022-08-31T23:59:10.423Z,22.75
